Pittsfield, IL

12:52 AM CDT on May 30, 2015 (GMT -0500)
Pittsfield Penstone Municipal | | Change Station
CLOSE
Current Station
Airport
Location: Pittsfield,
Elevation: 709 ft
Nearby Weather Stations

Elev 709 ft 39.64 °N, 90.78 °W | Updated 17 minutes ago

Heavy Thunderstorms and Rain
Heavy Thunderstorm Rain
67 °F
Feels Like 67 °F
N
0
Wind Variable Wind from North

Today
High -- | Low -- °F
--% Chance of Precip.
Yesterday
High -- | Low -- °F
Precip. -- in
5:38 AM 8:23 PM
Waxing Gibbous, 88% visible
Pressure 30.01 in
Visibility 2.5 miles
Clouds Scattered Clouds 2700 ft
Mostly Cloudy 3400 ft
Overcast 5500 ft
Dew Point 64 °F
Humidity 90%
Rainfall 0.18 in
Snow Depth Not available.
UV 0 out of 12
Pollen 3.80 out of 12
Air Quality Not available.
Flu Activity Sporadic
METAR KPPQ 300535Z AUTO 00000KT 2 1/2SM +VCTSRA SCT027 BKN034 OVC055 20/18 A3001 RMK AO2 LTG DSNT NE AND E P0014 T01950178

More Conditions Fewer Conditions

Pressure 30.01 in
Visibility 2.5 miles
Clouds Scattered Clouds 2700 ft
Mostly Cloudy 3400 ft
Overcast 5500 ft
Dew Point 64 °F
Humidity 90%
Rainfall 0.18 in
Snow Depth Not available.
UV 0 out of 12
Pollen 3.80 out of 12
Air Quality Not available.
Flu Activity Sporadic
METAR KPPQ 300535Z AUTO 00000KT 2 1/2SM +VCTSRA SCT027 BKN034 OVC055 20/18 A3001 RMK AO2 LTG DSNT NE AND E P0014 T01950178

More Conditions Fewer Conditions

10-Day Weather Forecast

Almanac

Astronomy

May. 30, 2015 Rise Set
Actual Time
Civil Twilight
Nautical Twilight
Astronomical Twilight
Moon
Length of Visible Light
Length of Day
Tomorrow will be .
, % of the Moon is Illuminated

Today's Extremes

State Highs State Lows

Community

WunderPhotos

Upload Photos

1,825,473 photos uploaded!

WunderBlogs® & News

Nearby

Air Quality

  Air Quality AQ Index Pollutant
Not available.

Snow Depth

Station Depth Elevation

Earthquake Activity

City Distance Mag. Time & Date
Minimum magnitude displayed is 2.5.

Coastal Water Temperatures

Place Temperature

Stations

Nearby Weather Stations

Station Location Temp. Windchill Dew Point Humidity Wind Precip. Elev Updated Type